createdAt,value
2023-03-23T00:03:19.828Z,1742.00
2023-03-23T00:04:19.885Z,1726.00
2023-03-23T00:05:19.961Z,1717.00
2023-03-23T00:06:20.022Z,1741.00
2023-03-23T00:07:20.034Z,1746.00
2023-03-23T00:08:20.071Z,1737.00
2023-03-23T00:09:20.142Z,1722.00
2023-03-23T00:10:20.167Z,1715.00
2023-03-23T00:11:20.230Z,1719.00
2023-03-23T00:12:20.266Z,1720.00
2023-03-23T00:13:21.258Z,1721.00
2023-03-23T00:21:20.195Z,1674.00
2023-03-23T00:23:20.153Z,1687.00
2023-03-23T00:27:20.320Z,1702.00
2023-03-23T00:28:20.317Z,1681.00
2023-03-23T00:29:20.396Z,1686.00
2023-03-23T00:30:20.429Z,1683.00
2023-03-23T00:31:20.483Z,1675.00
2023-03-23T00:32:20.552Z,1675.00
2023-03-23T00:33:20.586Z,1677.00
2023-03-23T00:34:20.655Z,1665.00
2023-03-23T00:35:20.704Z,1654.00
2023-03-23T00:36:20.729Z,1635.00
2023-03-23T00:37:20.803Z,1628.00
2023-03-23T00:38:20.878Z,1629.00
2023-03-23T00:39:20.922Z,1621.00
2023-03-23T00:40:20.952Z,1632.00
2023-03-23T00:41:21.016Z,1609.00
2023-03-23T00:42:21.065Z,1581.00
2023-03-23T00:43:21.136Z,1581.00
2023-03-23T00:44:22.756Z,1554.00
2023-03-23T00:45:21.220Z,1541.00
2023-03-23T00:46:21.281Z,1541.00
2023-03-23T00:47:21.303Z,1539.00
2023-03-23T00:48:21.400Z,1532.00
2023-03-23T00:49:21.407Z,1551.00
2023-03-23T00:50:29.426Z,1543.00
2023-03-23T00:51:22.437Z,1544.00
2023-03-23T01:00:21.367Z,1616.00
2023-03-23T01:04:21.369Z,1604.00
2023-03-23T01:11:21.593Z,1530.00
2023-03-23T01:13:21.571Z,1533.00
2023-03-23T01:14:21.622Z,1541.00
2023-03-23T01:15:21.676Z,1547.00
2023-03-23T01:16:21.710Z,1542.00
2023-03-23T01:17:21.743Z,1552.00
2023-03-23T01:18:21.769Z,1563.00
2023-03-23T01:19:22.790Z,1564.00
2023-03-23T01:22:21.749Z,1578.00
2023-03-23T01:30:21.705Z,1557.00
2023-03-23T01:33:21.764Z,1560.00
2023-03-23T01:43:22.045Z,1602.00
2023-03-23T01:44:22.126Z,1604.00
2023-03-23T01:45:22.119Z,1607.00
2023-03-23T01:46:22.203Z,1618.00
2023-03-23T01:47:22.202Z,1616.00
2023-03-23T01:48:22.260Z,1629.00
2023-03-23T01:49:22.323Z,1633.00
2023-03-23T01:50:22.353Z,1629.00
2023-03-23T01:51:26.228Z,1631.00
2023-03-23T01:52:23.426Z,1631.00
2023-03-23T01:54:22.368Z,1640.00
2023-03-23T01:55:22.395Z,1651.00
2023-03-23T01:59:22.337Z,1649.00
2023-03-23T02:07:22.646Z,1633.00
2023-03-23T02:08:22.746Z,1637.00
2023-03-23T02:09:22.827Z,1630.00
2023-03-23T02:12:22.776Z,1623.00
2023-03-23T02:13:22.756Z,1611.00
2023-03-23T02:19:22.719Z,1623.00
2023-03-23T02:36:22.602Z,1666.00
2023-03-23T02:40:22.586Z,1667.00
2023-03-23T02:47:22.560Z,1698.00
2023-03-23T02:52:22.501Z,1689.00
2023-03-23T02:59:22.667Z,1659.00
2023-03-23T03:00:22.671Z,1658.00
2023-03-23T03:01:22.731Z,1649.00
2023-03-23T03:02:22.808Z,1655.00
2023-03-23T03:03:22.831Z,1642.00
2023-03-23T03:04:22.874Z,1645.00
2023-03-23T03:05:22.920Z,1636.00
2023-03-23T03:06:22.957Z,1633.00
2023-03-23T03:07:23.008Z,1638.00
2023-03-23T03:08:23.041Z,1641.00
2023-03-23T03:09:23.092Z,1640.00
2023-03-23T03:10:23.129Z,1630.00
2023-03-23T03:11:23.182Z,1625.00
2023-03-23T03:12:23.235Z,1619.00
2023-03-23T03:13:23.286Z,1626.00
2023-03-23T03:14:23.345Z,1629.00
2023-03-23T03:15:23.356Z,1639.00
2023-03-23T03:16:23.389Z,1637.00
2023-03-23T03:17:23.461Z,1643.00
2023-03-23T03:18:23.532Z,1652.00
2023-03-23T03:19:23.565Z,1668.00
2023-03-23T03:20:23.604Z,1676.00
2023-03-23T03:21:23.656Z,1684.00
2023-03-23T03:22:23.723Z,1682.00
2023-03-23T03:23:23.762Z,1668.00
2023-03-23T03:24:23.816Z,1664.00
2023-03-23T03:25:23.846Z,1658.00
2023-03-23T03:26:23.904Z,1652.00
2023-03-23T03:27:23.952Z,1662.00
2023-03-23T03:28:23.992Z,1672.00
2023-03-23T03:29:24.075Z,1668.00
2023-03-23T03:30:24.104Z,1683.00
2023-03-23T03:31:24.193Z,1691.00
2023-03-23T03:32:24.240Z,1701.00
2023-03-23T03:33:24.269Z,1703.00
2023-03-23T03:34:24.366Z,1707.00
2023-03-23T03:35:24.399Z,1709.00
2023-03-23T03:36:24.411Z,1708.00
2023-03-23T03:37:24.464Z,1719.00
2023-03-23T03:38:24.548Z,1715.00
2023-03-23T03:39:24.568Z,1741.00
2023-03-23T03:40:24.613Z,1740.00
2023-03-23T03:41:24.646Z,1744.00
2023-03-23T03:42:24.707Z,1751.00
2023-03-23T03:43:24.752Z,1748.00
2023-03-23T03:44:24.797Z,1741.00
2023-03-23T03:45:24.865Z,1747.00
2023-03-23T03:46:24.908Z,1753.00
2023-03-23T03:47:24.958Z,1758.00
2023-03-23T03:48:24.995Z,1762.00
2023-03-23T03:49:25.080Z,1760.00
2023-03-23T03:51:27.079Z,1759.00
2023-03-23T03:52:25.216Z,1771.00
2023-03-23T03:53:28.873Z,1767.00
2023-03-23T03:54:25.272Z,1767.00
2023-03-23T03:55:25.261Z,1768.00
2023-03-23T04:02:25.164Z,1763.00
2023-03-23T04:03:25.158Z,1767.00
2023-03-23T04:05:25.213Z,1782.00
2023-03-23T04:11:32.742Z,1789.00
2023-03-23T04:12:26.104Z,1790.00
2023-03-23T04:14:25.112Z,1804.00
2023-03-23T04:19:25.063Z,1866.00
2023-03-23T04:20:32.281Z,1858.00
2023-03-23T04:21:26.071Z,1860.00
2023-03-23T04:22:25.044Z,1862.00
2023-03-23T04:23:25.042Z,1866.00
2023-03-23T04:24:56.340Z,1865.00
2023-03-23T04:25:26.044Z,1859.00
2023-03-23T04:28:25.029Z,1775.00
2023-03-23T04:29:25.025Z,1785.00
2023-03-23T04:34:24.995Z,1819.00
2023-03-23T04:35:25.002Z,1835.00
2023-03-23T04:36:24.985Z,1845.00
2023-03-23T04:37:25.947Z,1847.00
2023-03-23T04:41:24.931Z,1905.00
2023-03-23T04:45:24.926Z,1907.00
2023-03-23T04:51:24.890Z,1937.00
2023-03-23T04:57:24.834Z,1904.00
2023-03-23T04:58:24.840Z,1903.00
2023-03-23T04:59:24.905Z,1910.00
2023-03-23T05:00:24.904Z,1908.00
2023-03-23T05:01:24.940Z,1907.00
2023-03-23T05:02:24.969Z,1898.00
2023-03-23T05:06:24.951Z,1910.00
2023-03-23T05:10:24.933Z,1932.00
2023-03-23T05:13:24.903Z,1950.00
2023-03-23T05:14:24.909Z,1954.00
2023-03-23T05:21:24.859Z,1949.00
2023-03-23T05:25:24.852Z,1940.00
2023-03-23T05:27:24.787Z,1927.00
2023-03-23T05:28:24.836Z,1934.00
2023-03-23T05:31:24.762Z,1921.00
2023-03-23T05:32:24.794Z,1920.00
2023-03-23T05:33:24.786Z,1927.00
2023-03-23T05:34:24.755Z,1920.00
2023-03-23T05:35:24.783Z,1920.00
2023-03-23T05:41:24.729Z,1961.00
2023-03-23T05:48:24.921Z,1963.00
2023-03-23T05:49:24.946Z,1980.00
2023-03-23T05:50:25.000Z,2012.00
2023-03-23T05:51:24.999Z,2021.00
2023-03-23T05:52:25.054Z,2024.00
2023-03-23T05:53:25.106Z,2018.00
2023-03-23T05:54:25.130Z,2018.00
2023-03-23T05:55:25.122Z,2038.00
2023-03-23T05:56:25.209Z,2060.00
2023-03-23T05:57:25.169Z,2082.00
2023-03-23T05:58:27.183Z,2089.00
2023-03-23T05:59:25.195Z,2114.00
2023-03-23T06:03:25.155Z,2127.00
2023-03-23T06:04:25.166Z,2150.00
2023-03-23T06:06:25.147Z,2197.00
2023-03-23T06:07:25.146Z,2193.00
2023-03-23T06:08:25.122Z,2197.00
2023-03-23T06:09:25.145Z,2201.00
2023-03-23T06:10:25.104Z,2198.00
2023-03-23T06:11:25.086Z,2197.00
2023-03-23T06:12:25.126Z,2203.00
2023-03-23T06:13:25.105Z,2214.00
2023-03-23T06:17:25.098Z,2286.00
2023-03-23T06:19:25.032Z,2300.00
2023-03-23T06:20:25.120Z,2302.00
2023-03-23T06:22:25.047Z,2298.00
2023-03-23T06:29:25.144Z,2324.00
2023-03-23T06:30:25.673Z,2329.00
2023-03-23T06:31:25.171Z,2346.00
2023-03-23T06:32:25.231Z,2353.00
2023-03-23T06:34:25.248Z,2352.00
2023-03-23T06:35:25.659Z,2336.00
2023-03-23T06:41:25.428Z,2725.00
2023-03-23T06:42:25.457Z,2781.00
2023-03-23T06:43:25.463Z,2898.00
2023-03-23T06:44:25.503Z,2936.00
2023-03-23T06:50:25.470Z,3102.00
2023-03-23T06:51:25.464Z,3151.00
2023-03-23T06:52:25.472Z,3165.00
2023-03-23T06:56:25.424Z,3099.00
2023-03-23T06:57:25.593Z,3099.00
2023-03-23T06:58:25.420Z,3065.00
2023-03-23T06:59:25.441Z,3132.00
2023-03-23T07:02:25.416Z,3136.00
2023-03-23T07:03:25.429Z,3152.00
2023-03-23T07:04:25.426Z,3194.00
2023-03-23T07:05:25.709Z,3205.00
2023-03-23T07:08:25.391Z,3157.00
2023-03-23T07:09:37.689Z,3273.00
2023-03-23T07:10:26.742Z,3276.00
2023-03-23T07:11:25.357Z,3279.00
2023-03-23T07:15:25.333Z,3150.00
2023-03-23T07:18:25.309Z,3056.00
2023-03-23T07:19:25.315Z,3138.00
2023-03-23T07:20:25.706Z,3157.00
2023-03-23T07:23:25.447Z,3048.00
2023-03-23T07:24:25.498Z,3032.00
2023-03-23T07:25:25.722Z,2995.00
2023-03-23T07:26:25.619Z,2980.00
2023-03-23T07:27:25.677Z,2864.00
2023-03-23T07:28:25.756Z,2826.00
2023-03-23T07:29:25.805Z,2731.00
2023-03-23T07:30:25.924Z,2817.00
2023-03-23T07:42:25.810Z,2741.00
2023-03-23T07:43:25.753Z,2778.00
2023-03-23T07:44:25.798Z,2863.00
2023-03-23T07:47:25.729Z,2662.00
2023-03-23T07:48:26.721Z,2666.00
2023-03-23T07:49:25.733Z,2655.00
2023-03-23T07:52:25.666Z,2211.00
2023-03-23T07:53:25.704Z,2206.00
2023-03-23T07:56:25.752Z,2061.00
2023-03-23T07:58:25.708Z,2045.00
2023-03-23T07:59:25.650Z,2056.00
2023-03-23T08:03:25.620Z,1965.00
2023-03-23T08:06:25.599Z,1899.00
2023-03-23T08:07:25.602Z,1897.00
2023-03-23T08:08:25.608Z,1992.00
2023-03-23T08:09:25.664Z,1961.00
2023-03-23T08:10:25.651Z,1895.00
2023-03-23T08:11:25.678Z,1917.00
2023-03-23T08:12:25.742Z,1881.00
2023-03-23T08:13:25.801Z,1907.00
2023-03-23T08:18:25.978Z,1883.00
2023-03-23T08:19:25.993Z,1859.00
2023-03-23T08:20:26.088Z,1878.00
2023-03-23T08:21:26.151Z,1842.00
2023-03-23T08:22:26.217Z,2027.00
2023-03-23T08:23:26.268Z,1919.00
2023-03-23T08:24:26.316Z,1824.00
2023-03-23T08:25:26.357Z,1865.00
2023-03-23T08:26:26.390Z,1918.00
2023-03-23T08:27:26.414Z,1807.00
2023-03-23T08:28:26.441Z,1887.00
2023-03-23T08:29:26.455Z,1853.00
2023-03-23T08:30:26.486Z,1843.00
2023-03-23T08:31:26.689Z,1854.00
2023-03-23T08:33:26.599Z,2016.00
2023-03-23T08:37:26.620Z,2405.00
2023-03-23T08:38:26.682Z,2480.00
2023-03-23T08:39:26.753Z,2481.00
2023-03-23T08:40:26.782Z,2477.00
2023-03-23T08:41:26.873Z,2399.00
2023-03-23T08:42:26.955Z,2418.00
2023-03-23T08:43:27.082Z,2402.00
2023-03-23T08:44:27.054Z,2474.00
2023-03-23T08:45:27.105Z,2452.00
2023-03-23T08:46:27.183Z,2426.00
2023-03-23T08:47:27.270Z,2371.00
2023-03-23T08:48:28.303Z,2295.00
2023-03-23T08:49:28.254Z,2296.00
2023-03-23T08:50:27.281Z,1817.00
2023-03-23T08:51:27.747Z,1574.00
2023-03-23T08:56:27.250Z,1185.00
2023-03-23T08:59:27.237Z,889.00
2023-03-23T09:00:33.299Z,944.00
2023-03-23T09:01:28.245Z,932.00
2023-03-23T09:02:27.168Z,891.00
2023-03-23T09:03:27.210Z,903.00
2023-03-23T09:04:27.160Z,902.00
2023-03-23T09:05:27.169Z,871.00
2023-03-23T09:06:28.518Z,828.00
2023-03-23T09:07:27.183Z,757.00
2023-03-23T09:12:27.367Z,655.00
2023-03-23T09:13:27.476Z,735.00
2023-03-23T09:14:27.460Z,769.00
2023-03-23T09:15:33.203Z,999.00
2023-03-23T09:16:28.558Z,1007.00
2023-03-23T09:17:27.533Z,1066.00
2023-03-23T09:19:27.500Z,1207.00
2023-03-23T09:20:27.570Z,1097.00
2023-03-23T09:21:27.491Z,875.00
2023-03-23T09:22:27.499Z,731.00
2023-03-23T09:23:27.516Z,735.00
2023-03-23T09:24:27.511Z,633.00
2023-03-23T09:25:27.489Z,630.00
2023-03-23T09:26:27.463Z,586.00
2023-03-23T09:27:27.476Z,603.00
2023-03-23T09:28:27.440Z,619.00
2023-03-23T09:29:27.484Z,623.00
2023-03-23T09:30:27.552Z,687.00
2023-03-23T09:31:27.761Z,1239.00
2023-03-23T09:35:27.834Z,1650.00
2023-03-23T09:36:27.859Z,1685.00
2023-03-23T09:37:27.870Z,1662.00
2023-03-23T09:38:27.871Z,1829.00
2023-03-23T09:39:27.880Z,2786.00
2023-03-23T09:40:27.886Z,2179.00
2023-03-23T09:41:28.248Z,2145.00
2023-03-23T09:42:27.894Z,2187.00
2023-03-23T09:43:27.890Z,1863.00
2023-03-23T09:46:27.901Z,1741.00
2023-03-23T09:47:27.975Z,1791.00
2023-03-23T09:48:27.982Z,2008.00
2023-03-23T09:49:28.045Z,1780.00
2023-03-23T09:50:28.092Z,1764.00
2023-03-23T09:51:28.253Z,1805.00
2023-03-23T09:52:28.397Z,1982.00
2023-03-23T09:53:28.301Z,1911.00
2023-03-23T09:54:28.335Z,1875.00
2023-03-23T09:55:28.468Z,1967.00
2023-03-23T09:56:28.452Z,1998.00
2023-03-23T09:57:28.534Z,1917.00
2023-03-23T09:58:28.607Z,1763.00
2023-03-23T09:59:28.631Z,1889.00
2023-03-23T10:00:28.757Z,1924.00
2023-03-23T10:01:29.296Z,1781.00
2023-03-23T10:02:28.798Z,1637.00
2023-03-23T10:03:28.882Z,1638.00
2023-03-23T10:04:28.909Z,1606.00
2023-03-23T10:05:28.964Z,1528.00
2023-03-23T10:06:29.050Z,1527.00
2023-03-23T10:07:29.078Z,1583.00
2023-03-23T10:08:29.172Z,1609.00
2023-03-23T10:09:29.258Z,1638.00
2023-03-23T10:10:29.304Z,1647.00
2023-03-23T10:11:29.338Z,1519.00
2023-03-23T10:12:29.346Z,1469.00
2023-03-23T10:13:29.408Z,1498.00
2023-03-23T10:14:29.487Z,1680.00
2023-03-23T10:15:29.554Z,1794.00
2023-03-23T10:16:29.673Z,1842.00
2023-03-23T10:17:29.708Z,1957.00
2023-03-23T10:18:29.641Z,1901.00
2023-03-23T10:19:29.731Z,2099.00
2023-03-23T10:20:29.758Z,2037.00
2023-03-23T10:21:30.302Z,1977.00
2023-03-23T10:23:29.878Z,2011.00
2023-03-23T10:24:29.968Z,1949.00
2023-03-23T10:26:29.996Z,1830.00
2023-03-23T10:27:30.036Z,1703.00
2023-03-23T10:28:30.048Z,1578.00
2023-03-23T10:29:30.101Z,1537.00
2023-03-23T10:31:30.166Z,1214.00
2023-03-23T10:32:30.149Z,1067.00
2023-03-23T10:33:30.234Z,1020.00
2023-03-23T10:34:30.267Z,1008.00
2023-03-23T10:35:31.872Z,1017.00
2023-03-23T10:36:30.370Z,1043.00
2023-03-23T10:37:30.778Z,993.00
2023-03-23T10:38:30.441Z,1046.00
2023-03-23T10:39:30.496Z,1064.00
2023-03-23T10:40:30.524Z,1058.00
2023-03-23T10:41:30.576Z,991.00
2023-03-23T10:42:30.644Z,1174.00
2023-03-23T10:43:30.656Z,1329.00
2023-03-23T10:44:30.694Z,1504.00
2023-03-23T10:45:30.753Z,1673.00
2023-03-23T10:46:32.394Z,1989.00
2023-03-23T10:48:30.794Z,1631.00
2023-03-23T10:52:30.774Z,816.00
2023-03-23T10:54:30.743Z,745.00
2023-03-23T10:56:30.778Z,860.00
2023-03-23T11:00:30.678Z,627.00
2023-03-23T11:01:30.691Z,625.00
2023-03-23T11:04:30.667Z,606.00
2023-03-23T11:05:30.665Z,670.00
2023-03-23T11:06:30.740Z,831.00
2023-03-23T11:08:30.667Z,785.00
2023-03-23T11:13:30.581Z,978.00
2023-03-23T11:17:30.578Z,1031.00
2023-03-23T11:20:30.525Z,588.00
2023-03-23T11:21:30.521Z,652.00
2023-03-23T11:22:30.777Z,679.00
2023-03-23T11:25:30.577Z,669.00
2023-03-23T11:26:30.540Z,633.00
2023-03-23T11:27:30.609Z,598.00
2023-03-23T11:28:30.647Z,604.00
2023-03-23T11:29:30.721Z,597.00
2023-03-23T11:30:30.767Z,704.00
2023-03-23T11:31:30.803Z,907.00
2023-03-23T11:32:31.311Z,1085.00
2023-03-23T11:34:31.024Z,643.00
2023-03-23T11:35:31.110Z,562.00
2023-03-23T11:36:31.141Z,535.00
2023-03-23T11:37:31.299Z,768.00
2023-03-23T11:41:31.482Z,603.00
2023-03-23T11:42:31.514Z,559.00
2023-03-23T11:43:31.570Z,400.00
2023-03-23T11:44:31.618Z,400.00
2023-03-23T11:45:31.669Z,400.00
2023-03-23T11:46:31.722Z,400.00
2023-03-23T11:47:31.794Z,403.00
2023-03-23T11:48:31.680Z,417.00
2023-03-23T11:49:33.551Z,459.00
2023-03-23T11:50:31.709Z,477.00
2023-03-23T11:51:31.735Z,499.00
2023-03-23T11:52:31.795Z,502.00
2023-03-23T11:53:31.810Z,518.00
2023-03-23T11:54:31.870Z,532.00
2023-03-23T11:55:31.937Z,538.00
2023-03-23T11:56:31.940Z,501.00
2023-03-23T11:57:31.934Z,527.00
2023-03-23T11:58:31.992Z,519.00
2023-03-23T11:59:32.013Z,515.00
2023-03-23T12:00:32.043Z,500.00
2023-03-23T12:01:32.061Z,543.00
2023-03-23T12:02:32.141Z,578.00
2023-03-23T12:03:32.151Z,553.00
2023-03-23T12:04:32.178Z,594.00
2023-03-23T12:05:32.279Z,621.00
2023-03-23T12:08:32.367Z,542.00
2023-03-23T12:09:32.384Z,569.00
2023-03-23T12:10:40.807Z,538.00
2023-03-23T12:11:33.447Z,536.00
2023-03-23T12:14:36.601Z,457.00
2023-03-23T12:15:33.438Z,419.00
2023-03-23T12:20:37.731Z,753.00
2023-03-23T12:21:33.362Z,758.00
2023-03-23T12:22:32.374Z,805.00
2023-03-23T12:24:32.380Z,1067.00
2023-03-23T12:26:32.319Z,1312.00
2023-03-23T12:27:32.346Z,1192.00
2023-03-23T12:28:32.831Z,1181.00
2023-03-23T12:31:32.305Z,1449.00
2023-03-23T12:34:32.298Z,1985.00
2023-03-23T12:35:32.272Z,2095.00
2023-03-23T12:36:32.275Z,2320.00
2023-03-23T12:37:32.265Z,2357.00
2023-03-23T12:39:32.236Z,2529.00
2023-03-23T12:40:32.243Z,2523.00
2023-03-23T12:44:32.193Z,2097.00
2023-03-23T12:45:32.201Z,2194.00
2023-03-23T12:46:32.217Z,2086.00
2023-03-23T12:53:32.143Z,2092.00
2023-03-23T12:59:32.095Z,2029.00
2023-03-23T13:03:42.196Z,500.00
2023-03-23T13:05:42.353Z,500.00
2023-03-23T13:08:42.154Z,570.00
2023-03-23T13:09:42.161Z,514.00
2023-03-23T13:11:42.105Z,499.00
2023-03-23T13:12:42.126Z,510.00
2023-03-23T13:18:42.118Z,842.00
2023-03-23T13:22:42.041Z,968.00
2023-03-23T13:26:42.018Z,1080.00
2023-03-23T13:28:42.006Z,1150.00
2023-03-23T13:29:41.988Z,1170.00
2023-03-23T13:30:42.001Z,1182.00
2023-03-23T13:33:42.014Z,1227.00
2023-03-23T13:39:41.957Z,1271.00
2023-03-23T13:40:42.206Z,1294.00
2023-03-23T13:43:41.911Z,1404.00
2023-03-23T13:44:41.897Z,1455.00
2023-03-23T13:45:42.128Z,1515.00
2023-03-23T13:48:41.980Z,1735.00
2023-03-23T13:49:42.028Z,2446.00
2023-03-23T13:50:42.243Z,2857.00
2023-03-23T13:51:42.122Z,2702.00
2023-03-23T13:52:42.139Z,2463.00
2023-03-23T13:53:42.208Z,2289.00
2023-03-23T13:54:42.220Z,2219.00
2023-03-23T13:55:42.401Z,2179.00
2023-03-23T13:56:42.257Z,1949.00
2023-03-23T13:57:42.282Z,1917.00
2023-03-23T13:58:42.282Z,1919.00
2023-03-23T13:59:42.313Z,1981.00
2023-03-23T14:00:42.344Z,1945.00
2023-03-23T14:01:42.360Z,1912.00
2023-03-23T14:02:42.430Z,2034.00
2023-03-23T14:03:42.459Z,2097.00
2023-03-23T14:04:42.464Z,2040.00
2023-03-23T14:05:42.614Z,2046.00
2023-03-23T14:06:42.560Z,2060.00
2023-03-23T14:07:42.597Z,2110.00
2023-03-23T14:08:42.670Z,2134.00
2023-03-23T14:09:42.709Z,2063.00
2023-03-23T14:10:42.747Z,2058.00
2023-03-23T14:11:42.777Z,1976.00
2023-03-23T14:12:42.839Z,1946.00
2023-03-23T14:13:42.883Z,1911.00
2023-03-23T14:14:42.947Z,1893.00
2023-03-23T14:15:43.143Z,1892.00
2023-03-23T14:16:42.999Z,1865.00
2023-03-23T14:17:43.050Z,1901.00
2023-03-23T14:18:43.094Z,1898.00
2023-03-23T14:19:43.126Z,1701.00
2023-03-23T14:20:43.128Z,1569.00
2023-03-23T14:21:43.164Z,1580.00
2023-03-23T14:22:43.202Z,1660.00
2023-03-23T14:23:43.245Z,1635.00
2023-03-23T14:24:43.305Z,1677.00
2023-03-23T14:25:43.413Z,1744.00
2023-03-23T14:26:43.362Z,1732.00
2023-03-23T14:27:43.407Z,1754.00
2023-03-23T14:28:43.444Z,1741.00
2023-03-23T14:29:43.504Z,1772.00
2023-03-23T14:30:43.536Z,1781.00
2023-03-23T14:31:43.571Z,1805.00
2023-03-23T14:32:43.635Z,1764.00
2023-03-23T14:33:43.672Z,1734.00
2023-03-23T14:34:43.749Z,1756.00
2023-03-23T14:35:44.129Z,1764.00
2023-03-23T14:36:43.865Z,1776.00
2023-03-23T14:37:43.907Z,1775.00
2023-03-23T14:38:43.996Z,1779.00
2023-03-23T14:39:44.028Z,1774.00
2023-03-23T14:40:45.389Z,1776.00
2023-03-23T14:41:44.147Z,1757.00
2023-03-23T14:42:44.273Z,1591.00
2023-03-23T14:43:44.608Z,1420.00
2023-03-23T14:45:44.673Z,1457.00
2023-03-23T14:46:44.464Z,1440.00
2023-03-23T14:47:44.519Z,1407.00
2023-03-23T14:48:44.563Z,1452.00
2023-03-23T14:49:44.643Z,1460.00
2023-03-23T14:50:44.679Z,1427.00
2023-03-23T14:51:44.769Z,1410.00
2023-03-23T14:52:44.797Z,1462.00
2023-03-23T14:53:44.866Z,1454.00
2023-03-23T14:54:44.922Z,1429.00
2023-03-23T14:55:45.018Z,1431.00
2023-03-23T14:56:45.050Z,1253.00
2023-03-23T14:57:45.076Z,1200.00
2023-03-23T14:58:45.141Z,1236.00
2023-03-23T14:59:45.214Z,1277.00
2023-03-23T15:00:45.283Z,1315.00
2023-03-23T15:01:45.330Z,1329.00
2023-03-23T15:02:45.407Z,1301.00
2023-03-23T15:03:45.470Z,1314.00
2023-03-23T15:04:45.537Z,1332.00
2023-03-23T15:05:45.571Z,1334.00
2023-03-23T15:06:45.609Z,1350.00
2023-03-23T15:07:45.703Z,1343.00
2023-03-23T15:08:45.736Z,1287.00
2023-03-23T15:09:45.801Z,1245.00
2023-03-23T15:10:45.844Z,1202.00
2023-03-23T15:11:45.919Z,1265.00
2023-03-23T15:12:45.957Z,1264.00
2023-03-23T15:13:46.048Z,1251.00
2023-03-23T15:15:46.157Z,1202.00
2023-03-23T15:16:46.185Z,988.00
2023-03-23T15:17:46.237Z,889.00
2023-03-23T15:18:46.383Z,825.00
2023-03-23T15:19:46.394Z,900.00
2023-03-23T15:20:46.421Z,907.00
2023-03-23T15:21:46.507Z,952.00
2023-03-23T15:22:46.586Z,964.00
2023-03-23T15:23:46.624Z,1030.00
2023-03-23T15:24:46.707Z,1005.00
2023-03-23T15:25:46.728Z,1000.00
2023-03-23T15:26:46.827Z,1042.00
2023-03-23T15:27:46.893Z,1034.00
2023-03-23T15:28:46.923Z,1010.00
2023-03-23T15:29:47.972Z,1012.00
2023-03-23T15:32:46.929Z,1043.00
2023-03-23T15:33:47.905Z,1012.00
2023-03-23T15:35:46.875Z,942.00
2023-03-23T15:38:46.883Z,945.00
2023-03-23T15:41:46.848Z,922.00
2023-03-23T15:42:46.886Z,851.00
2023-03-23T15:43:46.964Z,852.00
2023-03-23T15:44:47.077Z,909.00
2023-03-23T15:45:47.077Z,908.00
2023-03-23T15:46:47.137Z,946.00
2023-03-23T15:47:47.200Z,925.00
2023-03-23T15:48:47.257Z,899.00
2023-03-23T15:49:47.356Z,927.00
2023-03-23T15:50:47.356Z,969.00
2023-03-23T15:51:47.420Z,953.00
2023-03-23T15:52:47.503Z,986.00
2023-03-23T15:53:47.590Z,862.00
2023-03-23T15:54:47.612Z,757.00
2023-03-23T15:55:47.667Z,801.00
2023-03-23T15:56:47.757Z,803.00
2023-03-23T15:58:57.895Z,500.00
2023-03-23T15:59:57.872Z,500.00
2023-03-23T16:00:57.907Z,500.00
2023-03-23T16:06:57.813Z,521.00
2023-03-23T16:07:57.812Z,529.00
2023-03-23T16:09:57.816Z,525.00
2023-03-23T16:11:57.782Z,525.00
2023-03-23T16:16:57.779Z,500.00
2023-03-23T16:17:57.781Z,507.00
2023-03-23T16:18:57.752Z,502.00
2023-03-23T16:19:57.746Z,497.00
2023-03-23T16:22:57.723Z,508.00
2023-03-23T16:23:57.719Z,510.00
2023-03-23T16:27:57.687Z,511.00
2023-03-23T16:29:09.878Z,500.00
2023-03-23T16:30:03.680Z,500.00
2023-03-23T16:30:58.707Z,500.00
2023-03-23T16:32:57.988Z,473.00
2023-03-23T16:33:57.633Z,449.00
2023-03-23T16:34:57.672Z,400.00
2023-03-23T16:35:57.796Z,470.00
2023-03-23T16:39:57.676Z,508.00
2023-03-23T16:42:57.574Z,508.00
2023-03-23T16:43:57.582Z,539.00
2023-03-23T16:44:57.592Z,545.00
2023-03-23T16:51:57.530Z,500.00
2023-03-23T16:54:57.532Z,580.00
2023-03-23T16:58:57.493Z,577.00
2023-03-23T16:59:57.494Z,554.00
2023-03-23T17:00:57.462Z,581.00
2023-03-23T17:04:57.470Z,598.00
2023-03-23T17:09:57.411Z,504.00
2023-03-23T17:10:57.396Z,506.00
2023-03-23T17:19:57.402Z,583.00
2023-03-23T17:29:57.318Z,609.00
2023-03-23T17:30:57.324Z,609.00
2023-03-23T17:41:57.203Z,678.00
2023-03-23T17:47:57.188Z,787.00
2023-03-23T17:48:57.174Z,822.00
2023-03-23T17:49:57.208Z,841.00
2023-03-23T17:55:57.126Z,667.00
2023-03-23T18:01:57.141Z,832.00
2023-03-23T18:02:57.140Z,866.00
2023-03-23T18:03:57.142Z,882.00
2023-03-23T18:04:57.156Z,892.00
2023-03-23T18:10:57.167Z,871.00
2023-03-23T18:11:57.178Z,870.00
2023-03-23T18:22:57.306Z,910.00
2023-03-23T18:23:59.857Z,894.00
2023-03-23T18:24:57.319Z,911.00
2023-03-23T18:25:57.308Z,918.00
2023-03-23T18:27:57.272Z,968.00
2023-03-23T18:28:58.268Z,970.00
2023-03-23T18:30:57.266Z,915.00
2023-03-23T18:34:57.239Z,1003.00
2023-03-23T18:40:57.217Z,1039.00
2023-03-23T18:41:57.186Z,1022.00
2023-03-23T18:43:57.787Z,981.00
2023-03-23T18:51:57.126Z,982.00
2023-03-23T19:03:57.069Z,1130.00
2023-03-23T19:04:57.090Z,1135.00
2023-03-23T19:05:57.043Z,1134.00
2023-03-23T19:06:57.046Z,1074.00
2023-03-23T19:07:57.106Z,1088.00
2023-03-23T19:14:57.146Z,893.00
2023-03-23T19:15:57.163Z,888.00
2023-03-23T19:17:57.096Z,811.00
2023-03-23T19:18:57.108Z,831.00
2023-03-23T19:19:58.058Z,862.00
2023-03-23T19:24:57.147Z,926.00
2023-03-23T19:25:57.163Z,971.00
2023-03-23T19:26:57.135Z,993.00
2023-03-23T19:28:49.965Z,1017.00
2023-03-23T19:30:57.210Z,1022.00
2023-03-23T19:31:57.150Z,1029.00
2023-03-23T19:33:57.136Z,1049.00
2023-03-23T19:34:57.149Z,1072.00
2023-03-23T19:37:04.779Z,1078.00
2023-03-23T19:37:58.099Z,1080.00
2023-03-23T19:38:57.089Z,1086.00
2023-03-23T19:40:57.218Z,1092.00
2023-03-23T19:45:57.034Z,957.00
2023-03-23T19:46:57.640Z,993.00
2023-03-23T19:47:57.121Z,1038.00
2023-03-23T19:48:57.034Z,1076.00
2023-03-23T19:49:57.043Z,1089.00
2023-03-23T19:52:08.077Z,1115.00
2023-03-23T19:53:00.178Z,1117.00
2023-03-23T19:54:56.989Z,1034.00
2023-03-23T19:55:57.383Z,1027.00
2023-03-23T19:56:57.014Z,1001.00
2023-03-23T20:00:57.070Z,1068.00
2023-03-23T20:05:56.957Z,1163.00
2023-03-23T20:06:57.179Z,1176.00
2023-03-23T20:10:56.876Z,1183.00
2023-03-23T20:11:56.891Z,1194.00
2023-03-23T20:17:57.986Z,1224.00
2023-03-23T20:23:56.818Z,1262.00
2023-03-23T20:25:57.787Z,1252.00
2023-03-23T20:31:56.725Z,1286.00
2023-03-23T20:32:56.771Z,1293.00
2023-03-23T20:33:59.832Z,1286.00
2023-03-23T20:34:56.754Z,1287.00
2023-03-23T20:35:56.824Z,1286.00
2023-03-23T20:36:56.744Z,1276.00
2023-03-23T20:38:56.690Z,1258.00
2023-03-23T20:39:56.700Z,1269.00
2023-03-23T20:40:56.711Z,1275.00
2023-03-23T20:42:56.704Z,1289.00
2023-03-23T20:49:56.651Z,1300.00
2023-03-23T20:51:56.690Z,1312.00
2023-03-23T20:53:56.607Z,1301.00
2023-03-23T20:54:56.625Z,1311.00
2023-03-23T21:01:56.614Z,1264.00
2023-03-23T21:04:56.545Z,1249.00
2023-03-23T21:05:56.563Z,1251.00
2023-03-23T21:09:56.532Z,1161.00
2023-03-23T21:10:56.518Z,1137.00
2023-03-23T21:18:56.515Z,932.00
2023-03-23T21:19:56.509Z,894.00
2023-03-23T21:20:56.537Z,914.00
2023-03-23T21:21:57.292Z,945.00
2023-03-23T21:22:56.563Z,935.00
2023-03-23T21:23:56.596Z,950.00
2023-03-23T21:24:56.630Z,984.00
2023-03-23T21:25:56.640Z,1013.00
2023-03-23T21:27:56.677Z,1074.00
2023-03-23T21:35:56.890Z,1115.00
2023-03-23T21:36:56.863Z,1134.00
2023-03-23T21:37:56.890Z,1143.00
2023-03-23T21:38:56.908Z,1145.00
2023-03-23T21:39:57.104Z,1143.00
2023-03-23T21:43:56.998Z,1157.00
2023-03-23T21:44:57.003Z,1159.00
2023-03-23T21:45:56.999Z,1163.00
2023-03-23T21:46:57.042Z,1164.00